Monatstabelle

Bitte in den Auwahlmenüs den gewünschte Zeiraum wählen und die Schaltfläche "Anfrage absenden" betätigen. Beginn der Aufzeichnung ist 2007 - Dezember. Vor diesem Zeitraum sind keine Daten verfügbar.

2018 - Dezember

 

Datum Temperatur (°C) Luftdruck (hPa) Luftfeuchte (%) Regen
(l/m²)
Wind (km/h)
avg: min: max: avg: min: max: avg: min: max: avg: max:
01.12.2018 -1,8 -2,9 1,0 1016,7 1014,4 1018,0 87 78 90 0,1 0,9 7,4
02.12.2018 -0,8 -3,2 0,8 1010,4 1008,8 1016,3 91 90 91 0,0 0,6 5,5
03.12.2018 5,6 0,7 7,7 1007,4 1006,0 1008,8 91 90 91 5,6 3,7 10,5
04.12.2018 8,0 4,2 14,1 1015,8 1005,2 1021,6 82 64 91 3,0 10,4 15,0
05.12.2018 -0,0 -3,1 7,2 1025,3 1021,6 1027,8 81 60 90 0,0 1,9 12,2
06.12.2018 3,1 -2,5 4,1 1019,5 1018,2 1023,1 83 70 89 0,0 4,5 16,6
07.12.2018 5,8 2,5 13,7 1010,0 1005,5 1018,9 85 70 90 0,0 2,0 5,6
08.12.2018 6,2 3,2 9,3 1009,6 1005,0 1010,9 71 56 90 1,4 9,1 17,5
09.12.2018 7,2 3,2 12,7 1002,1 1000,2 1007,6 69 59 79 0,1 5,7 14,3
10.12.2018 4,0 1,1 7,7 1011,5 1004,5 1013,5 70 60 83 0,4 8,5 18,2
11.12.2018 3,6 0,7 5,7 1013,2 1012,0 1013,9 72 64 84 0,3 7,9 14,3
12.12.2018 1,2 0,2 3,1 1016,8 1013,8 1017,9 89 77 90 3,2 0,3 6,0
13.12.2018 -0,4 -1,0 1,5 1017,0 1016,1 1018,1 87 85 90 0,1 4,1 7,6
14.12.2018 -1,7 -2,9 -0,5 1018,6 1016,8 1019,4 90 83 90 0,0 2,6 6,6
15.12.2018 -1,5 -2,3 -0,9 1018,1 1017,0 1019,3 88 86 90 0,0 12,0 15,1
16.12.2018 -3,4 -5,4 2,1 1014,8 1012,9 1017,0 84 74 88 0,1 2,0 12,9
17.12.2018 -1,3 -5,2 1,2 1020,6 1015,2 1023,9 87 81 90 0,0 2,0 5,5
18.12.2018 2,3 -1,2 5,6 1024,2 1022,4 1026,4 88 85 91 0,5 2,9 7,9
19.12.2018 1,7 0,1 4,4 1017,6 1015,9 1022,4 78 70 87 0,8 15,4 24,0
20.12.2018 -1,0 -2,8 0,9 1018,5 1014,8 1019,8 88 79 90 0,0 1,0 19,6
21.12.2018 2,8 -2,8 7,6 1013,2 1009,9 1020,4 88 76 91 1,1 1,9 8,2
22.12.2018 8,9 5,7 14,4 1012,5 1009,7 1015,8 77 60 90 1,9 6,1 24,8
23.12.2018 6,6 5,7 10,0 1016,2 1010,5 1020,4 82 68 90 2,2 2,2 14,8
24.12.2018 4,5 3,1 8,3 1017,4 1001,9 1024,2 81 72 90 8,8 15,3 26,4
25.12.2018 3,8 1,2 5,2 1025,6 1024,1 1026,5 69 66 81 0,0 12,4 24,5
26.12.2018 4,2 1,1 8,0 1023,8 1022,5 1026,4 62 41 77 0,0 5,9 14,8
27.12.2018 5,8 1,4 12,1 1022,2 1020,5 1023,9 80 64 89 0,0 2,5 12,9
28.12.2018 5,4 1,0 12,4 1021,2 1019,2 1023,2 70 49 90 0,0 7,7 15,6
29.12.2018 5,1 2,6 8,1 1023,7 1021,9 1025,7 62 50 74 0,0 8,1 17,2
30.12.2018 5,3 0,8 6,4 1020,8 1019,1 1022,3 75 68 88 0,5 13,5 21,6
31.12.2018 3,8 1,7 6,0 1025,7 1021,2 1027,1 81 71 87 0,8 10,5 20,9
avg. 3,0 1017,1 80   ---
  Summe Regen: 31,1  
 
Min-Datum 16.12.2018 09.12.2018 26.12.2018 --- ---
Min-Zeit 21:30 07:46 15:08 --- ---
Minimum -5,4 1000,2 41 --- ---
 

Max-Datum

22.12.2018 05.12.2018 02.12.2018 24.12.2018 24.12.2018
Max-Zeit 14:04 10:28 09:12 05:16 14:32
Maximum 14,4 1027,8 91 8,8 26,4
 

 

  Letztes Jahr
gleiches Monat
Eistage max < 0°C 2 0
Frosttage min < 0°C 12 19
Sommertage max >=25°C 0 0
Heiße Tage max >=30°C 0 0

 

<<< nach oben >>>